Terminal Aerodrome Forecast
Issued by NWS Sterling, VA

Current Version | Previous Version | Text Only | Print | Product List | Glossary Off
Versions: 1 2 3 4 5 6 7 8 9 10 11 12 13 14 15 16 17 18 19 20 21 22 23 24

350
FTUS41 KLWX 181212 AAA
TAFMRB
TAF AMD
KMRB 181212Z 1812/1912 VRB03KT 1SM BR FEW001 OVC035
     FM181230 29006KT P6SM BKN035
     FM181600 30015G23KT P6SM BKN030
     FM182100 31011G18KT P6SM BKN035
     FM182300 31006KT P6SM BKN035
     FM190500 30004KT P6SM SCT035=

USA.gov is the U.S. government's official web portal to all federal, state and local government web resources and services.